Time;durP1;ratioP1;P1;durP2;ratioP2;P2;SDS_P1;SDS_P2;PMS_P1;PMS_P2;Temp;Humidity;BMP_temperature;BMP_pressure;BME280_temperature;BME280_humidity;BME280_pressure;Samples;Min_cycle;Max_cycle;Signal;HPM_P1;HPM_P2
2021/12/10 00:02:04;;;;;;;14.63;7.25;;;;;;;0.90;100.00;100241.16;5014155;28;20399;-80
2021/12/10 00:04:35;;;;;;;12.90;7.32;;;;;;;0.79;100.00;100222.81;5011252;28;20034;-79
2021/12/10 00:07:07;;;;;;;11.52;7.07;;;;;;;0.94;100.00;100239.03;5015944;28;20582;-79
2021/12/10 00:09:39;;;;;;;12.02;7.05;;;;;;;0.96;100.00;100228.28;5015129;28;20135;-79
2021/12/10 00:12:14;;;;;;;10.43;6.95;;;;;;;1.00;100.00;100242.91;5016286;28;20029;-80
2021/12/10 00:14:40;;;;;;;11.38;6.85;;;;;;;0.89;100.00;100243.94;5015864;28;20050;-79
2021/12/10 00:17:10;;;;;;;11.52;7.05;;;;;;;0.87;100.00;100220.25;5014420;28;20111;-78
2021/12/10 00:19:45;;;;;;;10.43;7.22;;;;;;;0.96;100.00;100239.72;5014511;28;20426;-79
2021/12/10 00:22:26;;;;;;;13.25;7.10;;;;;;;0.97;100.00;100222.00;5016216;28;20368;-79
2021/12/10 00:24:53;;;;;;;10.43;6.78;;;;;;;0.98;100.00;100234.25;5014216;28;20057;-80
2021/12/10 00:27:28;;;;;;;11.60;6.95;;;;;;;0.77;100.00;100195.66;5014622;28;20101;-79
2021/12/10 00:30:07;;;;;;;11.43;6.45;;;;;;;0.99;100.00;100227.97;5014582;28;20470;-80
2021/12/10 00:32:41;;;;;;;12.00;7.20;;;;;;;0.88;100.00;100190.13;5032659;28;20420;-79
2021/12/10 00:35:17;;;;;;;12.63;7.30;;;;;;;0.56;100.00;100139.50;5015999;28;20045;-80
2021/12/10 00:37:43;;;;;;;10.15;6.15;;;;;;;0.91;100.00;100192.47;5017791;28;20179;-79
2021/12/10 00:40:10;;;;;;;11.25;6.93;;;;;;;1.00;100.00;100196.06;5024593;28;20057;-80
2021/12/10 00:42:37;;;;;;;12.50;7.15;;;;;;;1.10;100.00;100209.22;5013173;28;20022;-79
2021/12/10 00:45:06;;;;;;;12.57;6.50;;;;;;;0.91;100.00;100191.66;5014475;28;20482;-79
2021/12/10 00:47:32;;;;;;;10.93;6.50;;;;;;;0.91;100.00;100168.66;5013858;28;20081;-79
2021/12/10 00:49:58;;;;;;;10.45;6.78;;;;;;;1.00;100.00;100195.22;5014586;28;20480;-79
2021/12/10 00:52:23;;;;;;;12.13;6.78;;;;;;;1.05;100.00;100192.94;5014774;28;20033;-79
2021/12/10 00:54:49;;;;;;;10.80;6.63;;;;;;;0.99;100.00;100189.06;5011326;28;20033;-80
2021/12/10 00:57:16;;;;;;;10.52;6.35;;;;;;;1.04;100.00;100200.06;4998496;28;20105;-79
2021/12/10 00:59:44;;;;;;;11.52;6.50;;;;;;;0.98;100.00;100197.19;5013282;28;20026;-79
2021/12/10 01:02:12;;;;;;;9.57;6.47;;;;;;;0.90;100.00;100187.34;5013574;28;20032;-80
2021/12/10 01:04:41;;;;;;;9.35;6.03;;;;;;;0.61;100.00;100137.25;5014960;28;20045;-79
2021/12/10 01:07:13;;;;;;;13.35;6.88;;;;;;;0.96;100.00;100175.28;5011065;28;20030;-79
2021/12/10 01:09:42;;;;;;;10.60;6.45;;;;;;;0.90;100.00;100169.63;5004380;28;20037;-79
2021/12/10 01:12:10;;;;;;;10.07;6.25;;;;;;;0.99;100.00;100172.34;5011214;28;20368;-80
2021/12/10 01:26:09;;;;;;;10.15;6.40;;;;;;;1.00;100.00;100160.78;5017284;28;20391;-80
2021/12/10 01:28:38;;;;;;;11.88;5.80;;;;;;;1.01;100.00;100163.25;5012489;28;20030;-79
2021/12/10 01:31:05;;;;;;;10.63;6.18;;;;;;;1.07;100.00;100172.44;5030465;28;20434;-79
2021/12/10 01:33:31;;;;;;;10.27;6.43;;;;;;;1.09;100.00;100173.09;4977677;28;20026;-79
2021/12/10 01:35:57;;;;;;;8.20;5.32;;;;;;;1.02;100.00;100158.78;5013455;28;20083;-79
2021/12/10 01:38:25;;;;;;;9.80;6.10;;;;;;;0.96;100.00;100154.09;4997778;28;20511;-79
2021/12/10 01:40:56;;;;;;;9.18;5.88;;;;;;;1.08;100.00;100168.78;5015597;28;20022;-79
2021/12/10 01:43:23;;;;;;;10.38;5.82;;;;;;;0.98;100.00;100168.03;5016015;28;20415;-79
2021/12/10 01:46:01;;;;;;;10.73;6.38;;;;;;;0.77;100.00;100118.88;5016216;28;20097;-79
2021/12/10 01:48:32;;;;;;;12.55;6.28;;;;;;;0.52;100.00;100093.16;5018199;28;20040;-80
2021/12/10 01:50:59;;;;;;;8.27;6.05;;;;;;;0.91;100.00;100162.53;5011494;28;20030;-80
2021/12/10 01:53:27;;;;;;;8.52;5.97;;;;;;;1.03;100.00;100160.47;5013024;28;20030;-80
2021/12/10 01:55:57;;;;;;;8.88;5.90;;;;;;;1.04;100.00;100160.31;5012729;28;20558;-80
2021/12/10 01:58:25;;;;;;;10.70;6.18;;;;;;;0.84;100.00;100119.91;5014181;28;20415;-80
2021/12/10 02:00:57;;;;;;;8.32;5.78;;;;;;;0.84;100.00;100119.09;5012107;28;20038;-80
2021/12/10 02:03:24;;;;;;;9.40;6.25;;;;;;;0.96;100.00;100139.06;5013327;28;20042;-79
2021/12/10 02:05:50;;;;;;;11.23;6.13;;;;;;;1.03;100.00;100145.41;4995666;28;20033;-79
2021/12/10 02:08:16;;;;;;;8.50;5.78;;;;;;;1.03;100.00;100153.34;5012335;28;20117;-79
2021/12/10 02:10:42;;;;;;;9.55;5.75;;;;;;;1.02;100.00;100158.78;5012301;28;20093;-79
2021/12/10 02:13:07;;;;;;;9.40;5.68;;;;;;;1.00;100.00;100150.19;5012710;28;20076;-80
2021/12/10 02:15:33;;;;;;;9.07;5.78;;;;;;;1.04;100.00;100155.00;4995373;28;20120;-80
2021/12/10 02:18:00;;;;;;;11.52;6.32;;;;;;;0.98;100.00;100145.03;5012638;28;20024;-79
2021/12/10 02:20:35;;;;;;;10.80;6.32;;;;;;;0.82;100.00;100110.47;5012235;28;20029;-79
2021/12/10 02:23:05;;;;;;;10.90;6.50;;;;;;;1.01;100.00;100143.91;5013309;28;20104;-79
2021/12/10 02:25:31;;;;;;;11.88;7.07;;;;;;;1.10;100.00;100145.63;5011692;28;20042;-79
2021/12/10 02:27:58;;;;;;;9.23;6.60;;;;;;;1.06;100.00;100136.28;5013931;28;20133;-79
2021/12/10 02:30:27;;;;;;;11.38;6.43;;;;;;;1.11;100.00;100137.50;5011436;28;20032;-79
2021/12/10 02:32:53;;;;;;;13.35;6.95;;;;;;;1.10;100.00;100135.03;5013952;28;20029;-79
2021/12/10 02:35:19;;;;;;;13.27;7.47;;;;;;;0.90;100.00;100105.25;5012558;28;20403;-79
2021/12/10 02:37:48;;;;;;;10.27;7.15;;;;;;;1.01;100.00;100133.28;5013790;28;20033;-78
2021/12/10 02:40:17;;;;;;;10.38;6.65;;;;;;;0.98;100.00;100121.19;5012587;28;20041;-79
2021/12/10 02:42:43;;;;;;;10.20;6.72;;;;;;;1.06;100.00;100125.69;5012784;28;20033;-79
2021/12/10 02:45:11;;;;;;;10.73;6.68;;;;;;;1.06;100.00;100123.06;5011818;28;20356;-80
2021/12/10 02:47:37;;;;;;;13.73;7.13;;;;;;;0.85;100.00;100087.16;5012805;28;20076;-79
2021/12/10 02:50:06;;;;;;;13.85;6.97;;;;;;;1.04;100.00;100125.88;5013286;28;20112;-80
2021/12/10 02:52:32;;;;;;;9.88;6.25;;;;;;;1.02;100.00;100111.09;5017623;28;20033;-79
2021/12/10 02:54:58;;;;;;;12.50;6.97;;;;;;;1.08;100.00;100115.78;5012512;28;20025;-80
2021/12/10 02:57:25;;;;;;;13.35;7.80;;;;;;;1.04;100.00;100125.88;4997896;28;20029;-79
2021/12/10 02:59:51;;;;;;;12.07;7.03;;;;;;;1.06;100.00;100118.63;5017585;28;20030;-79
2021/12/10 03:02:23;;;;;;;13.50;7.35;;;;;;;1.12;100.00;100133.88;4995741;28;20503;-80
2021/12/10 03:04:50;;;;;;;13.60;7.85;;;;;;;1.09;100.00;100123.59;5013756;28;20026;-80
2021/12/10 03:07:19;;;;;;;15.15;7.43;;;;;;;1.11;100.00;100116.31;5013290;28;20091;-79
2021/12/10 03:09:47;;;;;;;16.55;7.70;;;;;;;0.94;100.00;100091.53;5013018;28;20026;-79
2021/12/10 03:12:14;;;;;;;14.32;7.80;;;;;;;1.07;100.00;100114.13;5012802;28;20522;-79
2021/12/10 03:14:42;;;;;;;12.20;7.38;;;;;;;0.91;100.00;100089.19;5014003;28;20443;-79
2021/12/10 03:17:13;;;;;;;13.45;7.82;;;;;;;1.06;100.00;100104.50;5013152;28;20018;-79
2021/12/10 03:19:39;;;;;;;11.88;7.38;;;;;;;1.00;100.00;100091.91;5012685;28;20018;-79
2021/12/10 03:22:06;;;;;;;11.73;8.07;;;;;;;1.00;100.00;100100.69;5016320;28;20117;-79
2021/12/10 03:24:33;;;;;;;12.63;7.63;;;;;;;1.05;100.00;100106.31;5013937;28;20037;-78
2021/12/10 03:27:03;;;;;;;12.02;7.47;;;;;;;0.74;100.00;100052.16;5017350;28;20022;-79
2021/12/10 03:29:30;;;;;;;14.70;7.78;;;;;;;1.11;100.00;100112.84;5014910;28;20466;-78
2021/12/10 03:31:59;;;;;;;13.85;8.13;;;;;;;1.20;100.00;100113.75;5012305;28;20030;-79
2021/12/10 03:34:25;;;;;;;13.48;8.35;;;;;;;1.20;100.00;100114.56;4999434;28;20440;-79
2021/12/10 03:36:52;;;;;;;16.33;8.77;;;;;;;0.92;100.00;100085.53;4995663;28;20113;-79
2021/12/10 03:39:22;;;;;;;11.30;7.90;;;;;;;1.23;100.00;100111.59;4996947;28;20539;-78
2021/12/10 03:41:48;;;;;;;14.30;8.65;;;;;;;1.13;100.00;100116.19;5016330;28;20117;-79
2021/12/10 03:44:15;;;;;;;13.27;8.30;;;;;;;1.14;100.00;100110.72;5016400;28;20220;-79
2021/12/10 03:46:41;;;;;;;13.48;8.75;;;;;;;1.23;100.00;100111.59;5015567;28;20496;-80
2021/12/10 03:49:08;;;;;;;13.90;8.70;;;;;;;1.25;100.00;100109.59;5015224;28;20033;-79
2021/12/10 03:51:35;;;;;;;16.58;8.93;;;;;;;1.15;100.00;100106.22;4999657;28;20025;-80
2021/12/10 03:54:01;;;;;;;14.90;9.80;;;;;;;1.13;100.00;100108.22;5015064;28;20034;-79
2021/12/10 03:56:29;;;;;;;13.60;8.85;;;;;;;1.10;100.00;100108.53;5016296;28;20040;-79
2021/12/10 03:58:59;;;;;;;16.02;9.32;;;;;;;0.93;100.00;100059.91;5019519;28;20430;-78
2021/12/10 04:01:29;;;;;;;17.63;10.52;;;;;;;1.17;100.00;100102.44;5016612;28;20026;-79
2021/12/10 04:03:57;;;;;;;18.83;10.98;;;;;;;1.15;100.00;100099.09;5015488;28;20026;-78
2021/12/10 04:06:24;;;;;;;17.38;10.65;;;;;;;1.25;100.00;100103.47;4998675;28;20095;-79
2021/12/10 04:08:49;;;;;;;16.95;11.45;;;;;;;1.18;100.00;100088.19;5018428;28;20028;-80
2021/12/10 04:11:17;;;;;;;20.48;11.75;;;;;;;1.27;100.00;100099.69;5034050;28;20443;-79
2021/12/10 04:13:45;;;;;;;18.42;12.30;;;;;;;1.23;100.00;100076.31;5017023;28;20091;-79
2021/12/10 04:16:10;;;;;;;22.13;13.30;;;;;;;1.36;100.00;100097.94;5015393;28;20040;-78
2021/12/10 04:18:37;;;;;;;21.70;13.30;;;;;;;1.16;100.00;100060.22;5015995;28;20029;-79
2021/12/10 04:21:07;;;;;;;22.25;13.90;;;;;;;1.25;100.00;100095.53;4998481;28;20033;-79
2021/12/10 04:23:34;;;;;;;22.90;14.05;;;;;;;1.20;100.00;100098.66;5015806;28;20525;-79
2021/12/10 04:26:00;;;;;;;27.65;14.57;;;;;;;1.30;100.00;100098.56;5014822;28;20122;-79
2021/12/10 04:28:26;;;;;;;30.80;15.55;;;;;;;1.35;100.00;100094.44;4982844;28;20025;-79
2021/12/10 04:30:52;;;;;;;26.95;16.58;;;;;;;1.28;100.00;100100.53;5013556;28;20037;-80
2021/12/10 04:33:25;;;;;;;30.95;16.23;;;;;;;1.19;100.00;100091.69;5014838;28;20045;-79
2021/12/10 04:35:53;;;;;;;25.33;15.43;;;;;;;1.15;100.00;100069.13;5014143;28;20443;-80
2021/12/10 04:38:21;;;;;;;29.77;16.67;;;;;;;1.10;100.00;100069.63;5013944;28;20084;-79
2021/12/10 04:40:48;;;;;;;30.63;17.15;;;;;;;1.18;100.00;100090.03;5014492;28;20030;-79
2021/12/10 04:43:16;;;;;;;26.75;16.83;;;;;;;1.23;100.00;100098.34;4982471;28;20046;-80
2021/12/10 04:45:42;;;;;;;27.63;16.67;;;;;;;1.24;100.00;100104.47;4994128;28;20092;-80
2021/12/10 04:48:07;;;;;;;29.27;17.33;;;;;;;1.27;100.00;100091.75;5011646;28;20038;-79
2021/12/10 04:50:34;;;;;;;30.05;17.88;;;;;;;1.29;100.00;100095.09;5008688;28;20030;-80
2021/12/10 04:53:00;;;;;;;33.78;19.27;;;;;;;1.23;100.00;100093.06;5014424;28;20044;-79
2021/12/10 04:55:27;;;;;;;32.50;17.52;;;;;;;1.27;100.00;100105.00;5014484;28;20048;-79
2021/12/10 04:57:53;;;;;;;33.72;18.25;;;;;;;1.27;100.00;100105.00;5013391;28;20111;-79
2021/12/10 05:00:26;;;;;;;34.60;18.05;;;;;;;1.11;100.00;100083.69;5013174;28;20049;-79
2021/12/10 05:02:53;;;;;;;34.88;18.60;;;;;;;0.04;100.00;99915.31;5017043;28;20065;-79
2021/12/10 05:05:19;;;;;;;31.75;18.42;;;;;;;0.92;100.00;100059.06;5009845;28;20053;-79
2021/12/10 05:07:50;;;;;;;38.90;19.58;;;;;;;1.20;100.00;100093.38;5017301;28;20560;-79
2021/12/10 05:10:18;;;;;;;33.85;18.60;;;;;;;1.11;100.00;100078.41;5000916;28;20484;-79
2021/12/10 05:12:44;;;;;;;31.92;17.88;;;;;;;1.26;100.00;100100.69;5006101;28;20452;-79
2021/12/10 05:15:14;;;;;;;34.42;19.23;;;;;;;1.18;100.00;100074.94;4992423;28;20029;-79
2021/12/10 05:17:40;;;;;;;35.60;19.05;;;;;;;1.27;100.00;100085.63;5011032;28;20029;-79
2021/12/10 05:20:12;;;;;;;30.27;17.45;;;;;;;1.20;100.00;100088.06;5006146;28;20022;-80
2021/12/10 05:22:40;;;;;;;32.50;18.50;;;;;;;1.22;100.00;100103.78;5014907;28;20088;-80
2021/12/10 05:25:07;;;;;;;35.38;19.23;;;;;;;1.14;100.00;100100.09;5001657;28;20042;-80
2021/12/10 05:27:33;;;;;;;32.67;18.88;;;;;;;1.21;100.00;100083.59;5004530;28;20520;-80
2021/12/10 05:29:59;;;;;;;34.13;17.83;;;;;;;1.22;100.00;100072.00;4992229;28;20041;-79
2021/12/10 05:32:24;;;;;;;36.78;20.00;;;;;;;1.33;100.00;100093.78;5006230;28;20033;-79
2021/12/10 05:34:50;;;;;;;38.08;19.92;;;;;;;1.02;100.00;100043.06;5007447;28;20371;-79
2021/12/10 05:37:15;;;;;;;34.70;20.02;;;;;;;0.93;100.00;100031.59;4979623;28;20124;-79
2021/12/10 05:39:40;;;;;;;33.97;19.85;;;;;;;1.32;100.00;100094.75;5009930;28;20440;-79
2021/12/10 05:42:06;;;;;;;35.42;20.40;;;;;;;1.16;100.00;100058.41;5011502;28;20033;-79
2021/12/10 05:44:32;;;;;;;35.42;20.90;;;;;;;1.34;100.00;100090.13;4990085;28;20117;-79
2021/12/10 05:46:59;;;;;;;34.28;19.85;;;;;;;1.19;100.00;100054.56;5002494;28;20029;-78
2021/12/10 05:49:26;;;;;;;35.28;20.83;;;;;;;1.42;100.00;100086.69;5010218;28;20026;-79
2021/12/10 05:51:52;;;;;;;35.42;20.92;;;;;;;1.37;100.00;100084.50;5009014;28;20026;-79
2021/12/10 05:54:17;;;;;;;37.28;21.30;;;;;;;1.47;100.00;100099.47;5008252;28;20033;-80
2021/12/10 05:56:43;;;;;;;36.13;21.00;;;;;;;1.44;100.00;100089.19;5012066;28;20459;-77
2021/12/10 05:59:08;;;;;;;35.83;20.50;;;;;;;1.39;100.00;100077.25;5015757;28;20026;-79
2021/12/10 06:01:35;;;;;;;33.20;19.45;;;;;;;1.33;100.00;100085.81;5010782;28;20034;-78
2021/12/10 06:04:00;;;;;;;39.97;21.98;;;;;;;1.36;100.00;100082.03;4994460;28;20026;-79
2021/12/10 06:06:30;;;;;;;39.30;23.48;;;;;;;1.37;100.00;100081.88;5007397;28;20033;-78
2021/12/10 06:08:57;;;;;;;50.83;28.27;;;;;;;1.33;100.00;100075.22;5006339;28;20418;-78
2021/12/10 06:11:25;;;;;;;43.45;25.10;;;;;;;1.35;100.00;100078.53;5001329;28;20019;-79
2021/12/10 06:13:52;;;;;;;40.35;23.52;;;;;;;1.25;100.00;100066.38;5008143;28;20107;-78
2021/12/10 06:16:18;;;;;;;40.47;22.42;;;;;;;1.28;100.00;100088.09;5009337;28;20026;-78
2021/12/10 06:18:45;;;;;;;43.25;24.60;;;;;;;1.30;100.00;100086.13;4992599;28;20038;-78
2021/12/10 06:21:12;;;;;;;41.38;24.35;;;;;;;1.34;100.00;100089.31;5009350;28;20110;-78
2021/12/10 06:23:37;;;;;;;43.13;24.52;;;;;;;1.36;100.00;100092.63;5007700;28;20089;-78
2021/12/10 06:26:04;;;;;;;41.47;23.55;;;;;;;1.37;100.00;100099.59;5005280;28;20145;-79
2021/12/10 06:28:32;;;;;;;39.13;23.50;;;;;;;1.31;100.00;100098.38;5006483;28;20038;-78
2021/12/10 06:30:57;;;;;;;39.53;23.65;;;;;;;1.20;100.00;100080.13;5007604;28;20394;-79
2021/12/10 06:33:27;;;;;;;39.53;23.15;;;;;;;1.21;100.00;100084.41;5008726;28;20021;-79
2021/12/10 06:35:54;;;;;;;43.70;23.13;;;;;;;1.20;100.00;100106.63;5010308;28;20561;-78
2021/12/10 06:38:22;;;;;;;42.20;23.55;;;;;;;1.15;100.00;100098.28;5012881;28;20062;-78
2021/12/10 06:40:49;;;;;;;42.22;23.23;;;;;;;1.28;100.00;100106.66;5008693;28;20084;-78
2021/12/10 06:43:17;;;;;;;40.60;23.55;;;;;;;1.25;100.00;100108.78;5009962;28;20058;-78
2021/12/10 06:45:45;;;;;;;42.45;25.08;;;;;;;1.29;100.00;100102.19;5005044;28;20038;-79
2021/12/10 06:48:12;;;;;;;43.97;25.23;;;;;;;1.30;100.00;100099.38;5009796;28;20384;-79
2021/12/10 06:50:42;;;;;;;46.63;26.90;;;;;;;1.29;100.00;100103.03;5009246;28;20030;-78
2021/12/10 06:53:07;;;;;;;44.90;23.95;;;;;;;1.17;100.00;100099.81;5006166;28;20041;-78
2021/12/10 06:55:34;;;;;;;46.67;24.52;;;;;;;1.25;100.00;100106.97;5009627;28;20038;-78
2021/12/10 06:58:00;;;;;;;47.83;25.58;;;;;;;1.24;100.00;100097.34;5012677;28;20033;-78
2021/12/10 07:00:41;;;;;;;44.03;25.20;;;;;;;1.23;100.00;100103.66;5011324;28;20043;-79
2021/12/10 07:03:07;;;;;;;46.35;24.67;;;;;;;1.22;100.00;100104.63;5027945;28;20068;-79
2021/12/10 07:05:33;;;;;;;48.25;25.10;;;;;;;1.13;100.00;100082.56;5020280;28;20378;-78
2021/12/10 07:07:59;;;;;;;41.95;24.27;;;;;;;1.17;100.00;100094.50;5015084;28;20034;-78
2021/12/10 07:10:24;;;;;;;44.30;25.70;;;;;;;1.20;100.00;100092.53;4998931;28;20034;-78
2021/12/10 07:12:51;;;;;;;46.05;26.15;;;;;;;1.14;100.00;100086.84;5016539;28;20020;-78
2021/12/10 07:15:17;;;;;;;46.72;26.38;;;;;;;1.08;100.00;100073.41;5016282;28;20081;-78
2021/12/10 07:17:45;;;;;;;43.40;25.58;;;;;;;1.14;100.00;100089.50;5013208;28;20049;-77
2021/12/10 07:20:12;;;;;;;41.75;25.13;;;;;;;1.14;100.00;100084.22;5012743;28;20026;-79
2021/12/10 07:22:38;;;;;;;45.20;25.65;;;;;;;1.13;100.00;100081.72;4995926;28;20080;-79
2021/12/10 07:25:05;;;;;;;48.85;25.77;;;;;;;1.07;100.00;100083.19;5022148;28;20080;-78
2021/12/10 07:27:31;;;;;;;47.92;26.73;;;;;;;1.00;100.00;100078.66;5035502;28;20513;-79
2021/12/10 07:29:56;;;;;;;46.85;25.75;;;;;;;0.90;100.00;100076.09;5019889;28;20030;-80
2021/12/10 07:32:22;;;;;;;46.22;25.00;;;;;;;0.92;100.00;100080.25;5016354;28;20034;-78
2021/12/10 07:34:47;;;;;;;48.63;26.00;;;;;;;0.91;100.00;100089.19;5013508;28;20026;-78
2021/12/10 07:37:13;;;;;;;49.63;26.10;;;;;;;0.88;100.00;100083.38;5008856;28;20038;-78
2021/12/10 07:39:39;;;;;;;49.90;27.15;;;;;;;0.85;100.00;100091.63;5009856;28;20113;-79
2021/12/10 07:42:10;;;;;;;53.20;28.15;;;;;;;0.78;100.00;100069.38;5013526;28;20159;-80
2021/12/10 07:44:37;;;;;;;51.13;26.80;;;;;;;0.87;100.00;100077.25;5011596;28;20022;-79
2021/12/10 07:47:08;;;;;;;51.70;27.30;;;;;;;0.88;100.00;100086.84;5011157;28;20034;-78
2021/12/10 07:49:34;;;;;;;45.47;26.35;;;;;;;0.54;100.00;100043.56;5011543;28;20018;-78
2021/12/10 07:52:00;;;;;;;50.22;25.60;;;;;;;0.75;100.00;100075.81;5008037;28;20027;-78
2021/12/10 07:54:26;;;;;;;46.22;26.10;;;;;;;0.86;100.00;100095.91;5011581;28;20436;-79
2021/12/10 07:56:53;;;;;;;50.15;27.35;;;;;;;0.92;100.00;100090.00;5009026;28;20041;-78
2021/12/10 07:59:18;;;;;;;53.13;27.88;;;;;;;1.00;100.00;100087.44;5014869;28;20355;-78
2021/12/10 08:01:44;;;;;;;49.72;26.90;;;;;;;0.98;100.00;100096.50;5012411;28;20045;-78
2021/12/10 08:04:09;;;;;;;46.67;26.25;;;;;;;0.95;100.00;100095.00;5014334;28;20038;-78
2021/12/10 08:06:36;;;;;;;53.05;28.48;;;;;;;0.99;100.00;100098.16;5013114;28;20042;-78
2021/12/10 08:09:06;;;;;;;50.42;27.70;;;;;;;0.86;100.00;100069.44;5012435;28;20121;-78
2021/12/10 08:11:31;;;;;;;44.88;26.55;;;;;;;0.98;100.00;100096.50;5011391;28;20014;-78
2021/12/10 08:13:57;;;;;;;47.25;25.60;;;;;;;0.77;100.00;100065.91;5012459;28;20037;-79
2021/12/10 08:16:25;;;;;;;48.45;27.58;;;;;;;1.01;100.00;100094.38;5005191;28;20353;-79
2021/12/10 08:18:52;;;;;;;48.88;26.60;;;;;;;1.04;100.00;100095.91;5011009;28;20041;-79
2021/12/10 08:21:18;;;;;;;43.67;25.48;;;;;;;1.06;100.00;100099.22;5009212;28;20033;-79
2021/12/10 08:23:44;;;;;;;46.67;25.63;;;;;;;1.11;100.00;100102.25;5026722;28;20026;-79
2021/12/10 08:26:12;;;;;;;46.28;26.45;;;;;;;1.00;100.00;100086.59;5011271;28;20135;-79
2021/12/10 08:28:38;;;;;;;46.88;26.35;;;;;;;1.04;100.00;100090.59;5010348;28;20057;-79
2021/12/10 08:31:05;;;;;;;47.55;26.63;;;;;;;1.02;100.00;100087.25;4994901;28;20440;-80
2021/12/10 08:33:31;;;;;;;45.83;24.95;;;;;;;1.00;100.00;100090.09;5011616;28;20038;-79
2021/12/10 08:36:03;;;;;;;50.17;25.63;;;;;;;0.83;100.00;100052.06;5014081;28;20094;-80
2021/12/10 08:38:29;;;;;;;46.92;25.25;;;;;;;0.99;100.00;100075.16;5008838;28;20042;-80
2021/12/10 08:41:05;;;;;;;49.63;26.83;;;;;;;1.11;100.00;100089.81;5008722;28;20127;-81
2021/12/10 08:43:31;;;;;;;45.58;25.98;;;;;;;1.14;100.00;100080.72;5010913;28;20083;-79
2021/12/10 08:45:57;;;;;;;46.35;23.70;;;;;;;1.08;100.00;100078.69;5010099;28;20452;-79
2021/12/10 08:48:27;;;;;;;48.10;26.05;;;;;;;1.11;100.00;100078.41;5011977;28;20030;-79
2021/12/10 08:50:54;;;;;;;45.28;24.63;;;;;;;1.11;100.00;100086.34;5011201;28;20030;-80
2021/12/10 08:53:19;;;;;;;46.38;24.77;;;;;;;1.22;100.00;100083.41;5009521;28;20057;-79
2021/12/10 08:55:49;;;;;;;43.72;24.13;;;;;;;1.24;100.00;100080.63;5011440;28;20120;-80
2021/12/10 08:58:16;;;;;;;42.38;23.45;;;;;;;1.23;100.00;100076.31;5009913;28;20108;-80
2021/12/10 09:00:46;;;;;;;42.00;24.23;;;;;;;1.04;100.00;100034.97;4994596;28;20874;-79
2021/12/10 09:03:12;;;;;;;39.60;21.98;;;;;;;1.28;100.00;100069.53;5013994;28;20452;-81
2021/12/10 09:05:38;;;;;;;43.45;23.38;;;;;;;1.29;100.00;100071.22;5010519;28;20459;-80
2021/12/10 09:08:04;;;;;;;44.03;22.38;;;;;;;1.15;100.00;100042.63;5010628;28;20022;-79
2021/12/10 09:10:35;;;;;;;40.40;21.55;;;;;;;1.35;100.00;100080.34;5006122;28;20080;-80
2021/12/10 09:13:03;;;;;;;36.67;20.98;;;;;;;1.27;100.00;100073.19;5008322;28;20446;-81
2021/12/10 09:15:29;;;;;;;36.47;20.35;;;;;;;1.03;100.00;100028.03;5008686;28;20057;-80
2021/12/10 09:17:58;;;;;;;35.28;19.67;;;;;;;1.37;100.00;100076.56;5009820;28;20101;-80
2021/12/10 09:20:39;;;;;;;36.75;19.88;;;;;;;1.21;100.00;100055.28;5008730;28;20092;-80
2021/12/10 09:23:09;;;;;;;36.13;19.20;;;;;;;1.14;100.00;100035.69;5002816;28;20518;-80
2021/12/10 09:25:35;;;;;;;36.85;19.67;;;;;;;1.36;100.00;100066.13;5010781;28;20418;-80
2021/12/10 09:28:01;;;;;;;32.75;18.90;;;;;;;1.30;100.00;100056.16;4997872;28;20021;-79
2021/12/10 09:30:30;;;;;;;35.70;19.00;;;;;;;1.04;100.00;100029.66;5011425;28;20030;-80
2021/12/10 09:32:56;;;;;;;32.08;19.20;;;;;;;1.32;100.00;100062.09;5009558;28;20026;-80
2021/12/10 09:35:24;;;;;;;32.72;19.52;;;;;;;1.31;100.00;100071.88;5006981;28;20038;-80
2021/12/10 09:37:50;;;;;;;33.10;19.25;;;;;;;1.28;100.00;100056.28;5010806;28;20033;-80
2021/12/10 09:40:26;;;;;;;32.88;18.58;;;;;;;0.96;100.00;100019.88;4993151;28;20041;-80
2021/12/10 09:42:53;;;;;;;30.13;17.90;;;;;;;1.46;100.00;100079.25;5009565;28;20374;-80
2021/12/10 09:45:22;;;;;;;32.75;17.90;;;;;;;1.38;100.00;100075.56;5009774;28;20400;-80
2021/12/10 09:47:48;;;;;;;30.00;17.48;;;;;;;1.38;100.00;100070.25;5006392;28;20030;-80
2021/12/10 09:50:15;;;;;;;31.88;17.52;;;;;;;1.26;100.00;100057.44;5014053;28;20030;-80
2021/12/10 09:52:42;;;;;;;28.70;17.80;;;;;;;1.44;100.00;100076.75;5007735;28;20033;-80
2021/12/10 09:55:11;;;;;;;28.67;16.80;;;;;;;1.47;100.00;100079.09;4994800;28;20456;-80
2021/12/10 09:57:38;;;;;;;29.27;16.92;;;;;;;1.39;100.00;100079.91;5004018;28;20626;-80
2021/12/10 10:00:16;;;;;;;31.73;17.70;;;;;;;1.31;100.00;100058.63;5010632;28;20056;-80
2021/12/10 10:02:42;;;;;;;26.63;16.98;;;;;;;1.43;100.00;100079.59;5032416;28;20033;-80
2021/12/10 10:05:09;;;;;;;33.60;20.85;;;;;;;1.51;100.00;100083.09;5013306;28;20030;-80
2021/12/10 10:07:36;;;;;;;26.58;18.00;;;;;;;1.44;100.00;100068.81;4998016;28;20057;-80
2021/12/10 10:10:13;;;;;;;31.52;20.80;;;;;;;1.27;100.00;100052.00;5006450;28;20032;-80
2021/12/10 10:12:42;;;;;;;27.92;18.85;;;;;;;1.40;100.00;100068.28;5009497;28;20037;-80
2021/12/10 10:15:13;;;;;;;30.17;18.65;;;;;;;1.42;100.00;100073.44;5015533;28;20026;-80
2021/12/10 10:17:39;;;;;;;30.10;17.75;;;;;;;1.30;100.00;100045.56;5018741;28;20479;-79
2021/12/10 10:20:09;;;;;;;27.20;17.58;;;;;;;1.07;100.00;99998.41;5009299;28;20109;-79
2021/12/10 10:22:36;;;;;;;28.92;17.90;;;;;;;1.44;100.00;100044.13;5013514;28;20152;-79
2021/12/10 10:25:08;;;;;;;30.00;18.63;;;;;;;1.67;99.23;100057.66;5008358;28;20168;-80
2021/12/10 10:27:36;;;;;;;27.40;18.08;;;;;;;1.68;99.13;100041.56;5007037;28;20032;-79
2021/12/10 10:30:30;;;;;;;26.35;17.08;;;;;;;1.52;98.52;100028.25;5007015;28;20117;-80
2021/12/10 10:32:58;;;;;;;27.10;17.33;;;;;;;1.45;99.49;100029.88;5017619;28;20022;-80
2021/12/10 10:35:30;;;;;;;27.52;17.00;;;;;;;1.33;99.53;100029.34;5007972;28;20096;-80
2021/12/10 10:37:57;;;;;;;25.92;16.77;;;;;;;1.23;99.19;100005.59;5002722;28;20038;-80
2021/12/10 10:40:27;;;;;;;25.95;16.67;;;;;;;1.37;99.04;100028.03;5010408;28;20064;-80
2021/12/10 10:42:54;;;;;;;27.40;16.90;;;;;;;1.51;99.05;100039.84;5009193;28;20034;-80
2021/12/10 10:45:25;;;;;;;24.50;15.73;;;;;;;1.45;98.58;100032.53;5004718;28;20055;-80
2021/12/10 10:48:00;;;;;;;23.98;14.95;;;;;;;1.34;98.39;100023.88;5004788;28;20535;-79
2021/12/10 10:50:34;;;;;;;23.95;15.52;;;;;;;1.30;98.52;100014.56;5008915;28;20022;-79
2021/12/10 10:53:13;;;;;;;24.25;16.20;;;;;;;1.58;98.34;100014.34;5006541;28;20033;-80
2021/12/10 10:56:15;;;;;;;24.17;16.52;;;;;;;1.55;97.72;100020.78;5012282;28;20032;-80
2021/12/10 10:58:45;;;;;;;22.75;14.77;;;;;;;1.60;97.97;100007.91;5016474;28;20068;-80
2021/12/10 11:01:24;;;;;;;20.45;15.02;;;;;;;1.54;97.76;100011.19;5013832;28;20022;-80
2021/12/10 11:04:24;;;;;;;21.33;15.40;;;;;;;1.57;97.21;100005.56;5011232;28;20034;-80
2021/12/10 11:06:53;;;;;;;23.33;14.88;;;;;;;1.72;97.42;100004.94;5011072;28;20026;-79
2021/12/10 11:09:21;;;;;;;24.80;16.35;;;;;;;1.60;96.75;99992.00;4991550;28;20030;-79
2021/12/10 11:11:48;;;;;;;27.23;17.48;;;;;;;1.65;97.15;100012.72;5006460;28;20113;-80
2021/12/10 11:14:37;;;;;;;27.15;17.08;;;;;;;1.61;96.45;100016.69;5010800;28;20029;-80
2021/12/10 11:17:25;;;;;;;32.70;18.40;;;;;;;1.59;96.97;100008.91;5000962;28;20030;-80
2021/12/10 11:19:59;;;;;;;26.80;17.77;;;;;;;1.36;96.98;99982.13;5010594;28;20033;-80
2021/12/10 11:22:26;;;;;;;29.00;18.90;;;;;;;1.54;96.82;100002.41;5013648;28;20076;-79
2021/12/10 11:25:10;;;;;;;31.25;18.15;;;;;;;1.45;97.45;100006.84;5025033;28;20049;-79
2021/12/10 11:27:40;;;;;;;28.48;19.05;;;;;;;1.44;97.15;99989.28;5023671;28;20041;-80
2021/12/10 11:30:17;;;;;;;27.40;18.20;;;;;;;1.46;96.69;99995.25;5028408;28;20034;-80
2021/12/10 11:33:03;;;;;;;25.48;17.80;;;;;;;1.49;97.05;99996.75;5012706;28;20451;-80